ADDS METAR Data INFO
IDs: Format: Raw Decoded Include TAF

Data at: 0903 UTC 20 Oct 2017

KIMT 200854Z AUTO 14004KT 10SM CLR 07/01 A3001 RMK AO2 SLP168 T00670006 58005
KIMT 200754Z AUTO 14004KT 10SM CLR 07/01 A3002 RMK AO2 SLP170 T00720006
KIMT 200654Z AUTO 14004KT 10SM CLR 06/01 A3002 RMK AO2 SLP172 T00560011
KIMT 200554Z AUTO 13004KT 10SM CLR 08/00 A3003 RMK AO2 SLP173 T00780000 10128 20072 401940072 53002
KIMT 200454Z AUTO 12004KT 10SM CLR 09/00 A3003 RMK AO2 SLP172 T00890000
KIMT 200354Z AUTO 14003KT 10SM CLR 11/M01 A3002 RMK AO2 SLP170 T01111011
KIMT 200254Z AUTO 16006KT 10SM CLR 11/M01 A3002 RMK AO2 SLP172 T01111011 56002
KIMT 200154Z AUTO 17006KT 10SM CLR 13/M01 A3002 RMK AO2 SLP172 T01281011
KIMT 200054Z AUTO 17005KT 10SM CLR 11/01 A3003 RMK AO2 SLP175 T01060006
KIMT 192354Z AUTO 00000KT 10SM CLR 12/01 A3003 RMK AO2 SLP175 T01170006 10194 20106 53002
KIMT 192254Z AUTO 00000KT 10SM CLR 15/00 A3002 RMK AO2 SLP172 T01500000
KIMT 192154Z AUTO VRB05KT 10SM CLR 18/M03 A3002 RMK AO2 SLP168 T01831028
KIMT 192054Z AUTO 27007KT 10SM CLR 19/M04 A3002 RMK AO2 SLP169 T01891039 58003
KIMT 191954Z AUTO 26010G19KT 10SM CLR 18/M04 A3003 RMK AO2 SLP171 T01831044
KIMT 191854Z AUTO 27009G16KT 10SM CLR 18/M05 A3003 RMK AO2 SLP171 T01831050
KIMT 191754Z AUTO 29007G18KT 10SM CLR 17/M06 A3003 RMK AO2 SLP172 T01721056 10172 20078 51007
KIMT 191654Z AUTO 28014G20KT 10SM CLR 16/M07 A3003 RMK AO2 SLP171 T01611072
KIMT 191554Z AUTO 28008KT 10SM CLR 13/M06 A3003 RMK AO2 SLP172 T01331061
KIMT 191454Z AUTO 27010KT 10SM CLR 12/M06 A3001 RMK AO2 SLP165 T01171056 51021
KIMT 191354Z AUTO 27006KT 10SM CLR 09/M05 A3000 RMK AO2 SLP163 T00941050
KIMT 191254Z AUTO 25007KT 10SM CLR 08/M06 A2997 RMK AO2 SLP152 T00781056
KIMT 191154Z AUTO 25006KT 10SM CLR 08/M06 A2995 RMK AO2 SLP144 T00781061 10133 20078 53016
KIMT 191054Z AUTO 24005KT 10SM CLR 08/M07 A2993 RMK AO2 SLP138 T00831067
KIMT 190954Z AUTO 26004KT 10SM CLR 09/M08 A2991 RMK AO2 SLP131 T00891078
KIMT 190854Z AUTO 27007KT 10SM CLR 10/M08 A2990 RMK AO2 SLP126 T01001083 51015
KIMT 190754Z AUTO 28008KT 10SM CLR 11/M08 A2988 RMK AO2 SLP119 T01061078
KIMT 190654Z AUTO 29010KT 10SM CLR 12/M07 A2987 RMK AO2 SLP115 T01221072
KIMT 190554Z AUTO 29010KT 10SM CLR 13/M07 A2985 RMK AO2 PK WND 28026/0521 SLP109 T01331067 10194 20133 402280061 53024
KIMT 190454Z AUTO 27009KT 10SM CLR 14/M02 A2983 RMK AO2 SLP101 T01441017
KIMT 190354Z AUTO 28010KT 10SM CLR 16/06 A2980 RMK AO2 SLP092 T01610056
KIMT 190254Z AUTO 24007KT 10SM CLR 17/07 A2978 RMK AO2 SLP085 T01720072 53012
KIMT 190154Z AUTO 24010G18KT 10SM CLR 18/08 A2976 RMK AO2 SLP080 T01830078
KIMT 190054Z AUTO 21008KT 10SM CLR 18/07 A2975 RMK AO2 SLP077 T01830072
KIMT 182354Z AUTO 21010KT 10SM CLR 19/07 A2974 RMK AO2 SLP075 T01940067 10228 20194 52005
KIMT 182254Z AUTO 22011G18KT 10SM CLR 21/07 A2974 RMK AO2 SLP075 T02060067
KIMT 182154Z AUTO 20013G22KT 10SM CLR 21/07 A2973 RMK AO2 SLP069 T02110067